Time;durP1;ratioP1;P1;durP2;ratioP2;P2;SDS_P1;SDS_P2;PMS_P1;PMS_P2;Temp;Humidity;BMP_temperature;BMP_pressure;BME280_temperature;BME280_humidity;BME280_pressure;Samples;Min_cycle;Max_cycle;Signal;HPM_P1;HPM_P2
2021/11/20 00:02:18;;;;;;;;;;;;;;;18.73;50.37;102959.72;5035461;28;19918;-86
2021/11/20 00:04:44;;;;;;;;;;;;;;;18.69;50.93;102948.97;5036138;28;19988;-87
2021/11/20 00:07:09;;;;;;;;;;;;;;;18.34;51.29;102943.31;5036212;28;19945;-87
2021/11/20 00:09:34;;;;;;;;;;;;;;;18.23;52.21;102941.09;5036234;28;19964;-87
2021/11/20 00:12:02;;;;;;;;;;;;;;;18.87;50.29;102941.72;5035159;28;19905;-86
2021/11/20 00:14:28;;;;;;;;;;;;;;;18.58;50.16;102941.25;5034056;28;19972;-86
2021/11/20 00:16:54;;;;;;;;;;;;;;;18.55;50.01;102924.97;5033717;28;19921;-87
2021/11/20 00:19:21;;;;;;;;;;;;;;;18.26;51.07;102921.75;5019356;28;20382;-88
2021/11/20 00:21:54;;;;;;;;;;;;;;;18.16;51.14;102934.09;5019422;28;19918;-86
2021/11/20 00:24:37;;;;;;;;;;;;;;;18.87;49.18;102939.91;5034236;28;19964;-86
2021/11/20 00:27:03;;;;;;;;;;;;;;;19.18;48.14;102940.22;5034190;28;20022;-86
2021/11/20 00:29:43;;;;;;;;;;;;;;;19.24;47.95;102928.91;5034080;28;19918;-87
2021/11/20 00:32:11;;;;;;;;;;;;;;;19.50;47.16;102934.91;5033559;28;19917;-84
2021/11/20 00:34:37;;;;;;;;;;;;;;;19.64;46.81;102930.47;5033482;28;19917;-86
2021/11/20 00:37:02;;;;;;;;;;;;;;;18.98;48.57;102919.25;5033136;28;19964;-87
2021/11/20 00:39:29;;;;;;;;;;;;;;;19.71;46.57;102931.03;5032968;28;19947;-87
2021/11/20 00:41:55;;;;;;;;;;;;;;;19.93;45.97;102924.41;5033350;28;19972;-86
2021/11/20 00:44:21;;;;;;;;;;;;;;;19.56;46.65;102923.59;5034028;28;20333;-88
2021/11/20 00:46:47;;;;;;;;;;;;;;;18.99;48.13;102924.66;5033695;28;19972;-87
2021/11/20 00:49:12;;;;;;;;;;;;;;;19.09;48.09;102923.22;5018967;28;19921;-88
2021/11/20 00:51:37;;;;;;;;;;;;;;;18.72;49.04;102933.28;5033537;28;19918;-89
2021/11/20 00:54:04;;;;;;;;;;;;;;;19.06;48.54;102915.16;5034061;28;20370;-86
2021/11/20 00:56:30;;;;;;;;;;;;;;;18.91;48.92;102907.72;5033548;28;19987;-85
2021/11/20 00:58:56;;;;;;;;;;;;;;;18.62;49.73;102923.72;5033818;28;19984;-86
2021/11/20 01:01:24;;;;;;;;;;;;;;;19.21;47.81;102918.09;5032268;28;19924;-86
2021/11/20 01:03:49;;;;;;;;;;;;;;;19.25;48.07;102914.25;5032725;28;19917;-87
2021/11/20 01:06:14;;;;;;;;;;;;;;;18.70;49.64;102918.72;5033474;28;19929;-87
2021/11/20 01:08:41;;;;;;;;;;;;;;;18.87;49.15;102919.78;5033482;28;19928;-86
2021/11/20 01:11:09;;;;;;;;;;;;;;;18.63;49.15;102917.28;5033579;28;19939;-86
2021/11/20 01:13:34;;;;;;;;;;;;;;;18.98;48.92;102909.19;5034102;28;19924;-88
2021/11/20 01:16:01;;;;;;;;;;;;;;;19.02;48.73;102913.56;5034716;28;19960;-85
2021/11/20 01:18:28;;;;;;;;;;;;;;;19.32;47.74;102906.56;5033248;28;19917;-85
2021/11/20 01:20:54;;;;;;;;;;;;;;;19.20;48.02;102906.22;5036996;28;19929;-85
2021/11/20 01:23:20;;;;;;;;;;;;;;;18.59;49.28;102910.16;5034875;28;19921;-83
2021/11/20 01:25:46;;;;;;;;;;;;;;;18.57;49.51;102912.09;5034031;28;19918;-85
2021/11/20 01:28:12;;;;;;;;;;;;;;;18.30;50.77;102898.75;5021544;28;20289;-88
2021/11/20 01:30:38;;;;;;;;;;;;;;;17.99;51.69;102902.91;5033853;28;19917;-86
2021/11/20 01:33:04;;;;;;;;;;;;;;;18.53;49.78;102904.97;5033203;28;20366;-86
2021/11/20 01:35:29;;;;;;;;;;;;;;;18.29;50.41;102896.97;5033129;28;20028;-87
2021/11/20 01:37:55;;;;;;;;;;;;;;;18.88;48.97;102906.00;5032828;28;19917;-87
2021/11/20 01:40:21;;;;;;;;;;;;;;;18.40;49.75;102897.34;5033255;28;19917;-86
2021/11/20 01:42:47;;;;;;;;;;;;;;;18.78;49.38;102894.56;5033597;28;19984;-86
2021/11/20 01:45:15;;;;;;;;;;;;;;;18.41;49.80;102900.97;5032820;28;20010;-85
2021/11/20 01:47:45;;;;;;;;;;;;;;;18.59;49.94;102889.09;5016686;28;19924;-86
2021/11/20 01:50:21;;;;;;;;;;;;;;;18.84;49.43;102892.47;5017838;28;19902;-85
2021/11/20 01:52:51;;;;;;;;;;;;;;;18.89;49.03;102893.19;5017839;28;19917;-86
2021/11/20 01:55:35;;;;;;;;;;;;;;;19.86;46.40;102893.66;5018267;28;19917;-87
2021/11/20 01:58:09;;;;;;;;;;;;;;;19.42;47.04;102886.78;5016691;28;19929;-86
2021/11/20 02:00:54;;;;;;;;;;;;;;;19.56;46.26;102887.91;5016572;28;19933;-88
2021/11/20 02:03:32;;;;;;;;;;;;;;;19.53;47.08;102879.84;5033657;28;19916;-89
2021/11/20 02:06:01;;;;;;;;;;;;;;;19.45;47.67;102878.38;5016686;28;19955;-88
2021/11/20 02:08:30;;;;;;;;;;;;;;;19.22;47.12;102868.63;5033662;28;19921;-89
2021/11/20 02:10:57;;;;;;;;;;;;;;;19.21;47.68;102868.72;5018381;28;19917;-87
2021/11/20 02:13:26;;;;;;;;;;;;;;;19.26;47.66;102873.00;5034045;28;19939;-88
2021/11/20 02:15:59;;;;;;;;;;;;;;;19.10;48.15;102872.00;5037079;28;19917;-87
2021/11/20 02:18:25;;;;;;;;;;;;;;;19.92;46.20;102867.72;5036673;28;20267;-88
2021/11/20 02:20:56;;;;;;;;;;;;;;;19.54;46.85;102868.78;5036548;28;19921;-86
2021/11/20 02:23:21;;;;;;;;;;;;;;;20.03;45.61;102870.72;5037642;28;19922;-88
2021/11/20 02:25:48;;;;;;;;;;;;;;;18.25;49.72;102873.41;5020732;28;20436;-88
2021/11/20 02:28:14;;;;;;;;;;;;;;;19.21;47.71;102876.94;5021226;28;19917;-87
2021/11/20 02:30:41;;;;;;;;;;;;;;;19.39;47.02;102866.84;5037625;28;19917;-88
2021/11/20 02:33:36;;;;;;;;;;;;;;;19.65;46.29;102870.94;5037329;28;19909;-91
2021/11/20 02:36:03;;;;;;;;;;;;;;;19.35;47.06;102865.22;5038392;28;19926;-91
2021/11/20 02:38:40;;;;;;;;;;;;;;;19.92;45.33;102856.72;5039105;28;19917;-89
2021/11/20 02:41:06;;;;;;;;;;;;;;;20.04;45.18;102861.53;5022329;28;19917;-90
2021/11/20 02:43:33;;;;;;;;;;;;;;;20.11;44.83;102854.72;5037522;28;20005;-90
2021/11/20 02:45:59;;;;;;;;;;;;;;;19.02;47.04;102864.19;5038150;28;20280;-92
2021/11/20 02:48:26;;;;;;;;;;;;;;;19.40;46.47;102849.41;5053672;28;19944;-91
2021/11/20 02:50:54;;;;;;;;;;;;;;;20.10;44.92;102844.69;5054861;28;19918;-92
2021/11/20 02:53:29;;;;;;;;;;;;;;;19.21;46.82;102842.16;5054989;28;19972;-89
2021/11/20 02:55:54;;;;;;;;;;;;;;;18.58;47.60;102850.81;5054727;28;19940;-92
2021/11/20 02:58:21;;;;;;;;;;;;;;;19.41;46.43;102843.81;5056461;28;19921;-91
2021/11/20 03:00:47;;;;;;;;;;;;;;;19.74;45.72;102842.09;5055228;28;19918;-91
2021/11/20 03:03:13;;;;;;;;;;;;;;;20.40;43.98;102832.06;5055148;28;19906;-91
2021/11/20 03:05:38;;;;;;;;;;;;;;;18.91;47.18;102836.41;5054626;28;20024;-92
2021/11/20 03:08:05;;;;;;;;;;;;;;;19.81;44.79;102822.50;5053655;28;19921;-90
2021/11/20 03:10:30;;;;;;;;;;;;;;;19.01;46.09;102825.81;5045573;28;19924;-90
2021/11/20 03:12:56;;;;;;;;;;;;;;;19.03;46.64;102830.28;5020922;28;19964;-91
2021/11/20 03:15:21;;;;;;;;;;;;;;;19.64;45.19;102831.63;5024788;28;19964;-92
2021/11/20 03:17:46;;;;;;;;;;;;;;;19.18;45.98;102830.47;5033823;28;19914;-90
2021/11/20 03:20:14;;;;;;;;;;;;;;;19.06;46.51;102834.72;5028027;28;19968;-91
2021/11/20 03:22:42;;;;;;;;;;;;;;;18.63;46.92;102834.13;5033416;28;19948;-89
2021/11/20 03:25:07;;;;;;;;;;;;;;;18.57;47.05;102828.00;5024666;28;19957;-91
2021/11/20 03:27:35;;;;;;;;;;;;;;;18.65;46.51;102822.13;5020014;28;19940;-89
2021/11/20 03:30:01;;;;;;;;;;;;;;;19.51;44.83;102813.16;5020156;28;19921;-91
2021/11/20 03:32:26;;;;;;;;;;;;;;;18.81;46.44;102811.28;5020220;28;19917;-91
2021/11/20 03:34:53;;;;;;;;;;;;;;;18.81;46.21;102815.84;5020274;28;19917;-91
2021/11/20 03:37:22;;;;;;;;;;;;;;;18.66;46.53;102818.44;5021040;28;20331;-90
2021/11/20 03:39:48;;;;;;;;;;;;;;;18.86;45.86;102820.19;5020244;28;19921;-90
2021/11/20 03:42:13;;;;;;;;;;;;;;;18.68;46.16;102810.13;5020204;28;19971;-91
2021/11/20 03:44:38;;;;;;;;;;;;;;;18.81;46.44;102813.13;5019803;28;19918;-90
2021/11/20 03:47:04;;;;;;;;;;;;;;;19.12;44.88;102804.22;5020954;28;20004;-91
2021/11/20 03:49:29;;;;;;;;;;;;;;;18.56;46.52;102803.41;5022417;28;20404;-92
2021/11/20 03:51:54;;;;;;;;;;;;;;;19.10;45.22;102800.69;5022176;28;20156;-91
2021/11/20 03:54:20;;;;;;;;;;;;;;;19.37;44.22;102800.16;5021544;28;19949;-92
2021/11/20 03:56:45;;;;;;;;;;;;;;;19.30;44.21;102800.50;5022184;28;19929;-91
2021/11/20 03:59:11;;;;;;;;;;;;;;;19.23;44.30;102801.78;5036762;28;19924;-90
2021/11/20 04:01:36;;;;;;;;;;;;;;;18.80;45.15;102794.91;5037890;28;20378;-90
2021/11/20 04:04:02;;;;;;;;;;;;;;;17.81;47.00;102802.41;5037804;28;19953;-91
2021/11/20 04:06:28;;;;;;;;;;;;;;;18.36;46.40;102801.66;5022756;28;20500;-90
2021/11/20 04:08:53;;;;;;;;;;;;;;;18.46;45.77;102799.34;5036377;28;19921;-92
2021/11/20 04:11:22;;;;;;;;;;;;;;;18.40;45.69;102801.44;5036922;28;20000;-91
2021/11/20 04:13:48;;;;;;;;;;;;;;;17.49;47.55;102802.06;5037771;28;19921;-91
2021/11/20 04:16:14;;;;;;;;;;;;;;;18.06;46.76;102802.19;5042284;28;20362;-90
2021/11/20 04:18:42;;;;;;;;;;;;;;;18.64;45.37;102803.00;5044516;28;19918;-90
2021/11/20 04:21:07;;;;;;;;;;;;;;;18.58;45.17;102804.19;5041890;28;20422;-91
2021/11/20 04:23:34;;;;;;;;;;;;;;;19.39;43.75;102804.59;5036061;28;19960;-91
2021/11/20 04:25:59;;;;;;;;;;;;;;;17.94;46.87;102798.19;5036626;28;19925;-90
2021/11/20 04:28:25;;;;;;;;;;;;;;;18.33;46.37;102799.94;5035682;28;19917;-91
2021/11/20 04:30:50;;;;;;;;;;;;;;;18.50;45.06;102795.50;5036589;28;19918;-91
2021/11/20 04:33:16;;;;;;;;;;;;;;;18.84;44.88;102788.28;5036362;28;19918;-91
2021/11/20 04:35:42;;;;;;;;;;;;;;;19.97;42.10;102769.44;5035559;28;20012;-91
2021/11/20 04:38:07;;;;;;;;;;;;;;;17.67;46.50;102779.31;5034373;28;19926;-93
2021/11/20 04:40:33;;;;;;;;;;;;;;;18.42;45.58;102772.09;5036660;28;19917;-91
2021/11/20 04:42:58;;;;;;;;;;;;;;;18.57;45.46;102773.16;5036236;28;19949;-91
2021/11/20 04:45:24;;;;;;;;;;;;;;;18.05;45.25;102773.88;5036031;28;20379;-92
2021/11/20 04:47:50;;;;;;;;;;;;;;;18.52;45.34;102777.09;5035921;28;19925;-91
2021/11/20 04:50:16;;;;;;;;;;;;;;;17.86;46.68;102786.66;5036177;28;19925;-91
2021/11/20 04:52:42;;;;;;;;;;;;;;;17.99;46.14;102782.41;5036716;28;19925;-91
2021/11/20 04:55:08;;;;;;;;;;;;;;;18.44;45.27;102782.97;5035692;28;19935;-92
2021/11/20 04:57:33;;;;;;;;;;;;;;;18.51;44.95;102786.28;5036594;28;19953;-92
2021/11/20 04:59:59;;;;;;;;;;;;;;;17.49;47.48;102781.06;5035738;28;19924;-92
2021/11/20 05:02:24;;;;;;;;;;;;;;;17.53;47.76;102784.56;5036924;28;20056;-92
2021/11/20 05:04:50;;;;;;;;;;;;;;;18.02;46.44;102785.00;5037388;28;19906;-91
2021/11/20 05:07:16;;;;;;;;;;;;;;;18.64;45.15;102781.94;5037068;28;20008;-91
2021/11/20 05:09:41;;;;;;;;;;;;;;;18.91;44.57;102785.16;5036945;28;19989;-90
2021/11/20 05:12:07;;;;;;;;;;;;;;;19.01;44.67;102781.94;5041547;28;19921;-92
2021/11/20 05:14:34;;;;;;;;;;;;;;;19.40;43.61;102773.44;5049862;28;19932;-90
2021/11/20 05:16:59;;;;;;;;;;;;;;;19.38;43.65;102767.13;5045379;28;19929;-92
2021/11/20 05:19:24;;;;;;;;;;;;;;;19.36;44.12;102763.59;5049278;28;19921;-90
2021/11/20 05:21:49;;;;;;;;;;;;;;;17.89;47.51;102764.66;5038755;28;19917;-91
2021/11/20 05:24:15;;;;;;;;;;;;;;;18.51;45.83;102765.25;5036724;28;20375;-91
2021/11/20 05:26:40;;;;;;;;;;;;;;;18.46;46.40;102766.44;5036062;28;19932;-90
2021/11/20 05:29:07;;;;;;;;;;;;;;;19.54;43.42;102756.22;5035942;28;20256;-91
2021/11/20 05:31:34;;;;;;;;;;;;;;;19.98;42.59;102750.09;5035012;28;20401;-91
2021/11/20 05:33:59;;;;;;;;;;;;;;;18.32;46.20;102751.59;5035637;28;19963;-89
2021/11/20 05:36:30;;;;;;;;;;;;;;;18.13;47.10;102743.41;5036371;28;20338;-91
2021/11/20 05:38:55;;;;;;;;;;;;;;;19.22;44.22;102738.75;5036139;28;19930;-91
2021/11/20 05:41:21;;;;;;;;;;;;;;;18.58;45.49;102743.91;5020042;28;19918;-90
2021/11/20 05:43:46;;;;;;;;;;;;;;;18.84;45.30;102739.81;5034315;28;19925;-90
2021/11/20 05:46:13;;;;;;;;;;;;;;;17.95;46.81;102745.19;5035498;28;19963;-91
2021/11/20 05:48:39;;;;;;;;;;;;;;;18.23;46.27;102744.69;5037452;28;19972;-91
2021/11/20 05:51:04;;;;;;;;;;;;;;;19.71;43.09;102737.91;5040068;28;19917;-91
2021/11/20 05:53:29;;;;;;;;;;;;;;;18.56;45.32;102740.34;5040387;28;19905;-92
2021/11/20 05:55:55;;;;;;;;;;;;;;;19.12;43.95;102730.16;5041231;28;19917;-90
2021/11/20 05:58:21;;;;;;;;;;;;;;;18.73;44.64;102723.91;5040561;28;19917;-89
2021/11/20 06:00:51;;;;;;;;;;;;;;;18.90;44.77;102725.81;5037609;28;20266;-90
2021/11/20 06:03:18;;;;;;;;;;;;;;;18.60;44.95;102731.91;5038490;28;20429;-92
2021/11/20 06:05:45;;;;;;;;;;;;;;;18.23;45.82;102728.25;5038984;28;20024;-91
2021/11/20 06:08:10;;;;;;;;;;;;;;;17.88;46.58;102721.78;5039458;28;19926;-92
2021/11/20 06:10:37;;;;;;;;;;;;;;;18.82;44.42;102718.91;5038643;28;19928;-92
2021/11/20 06:13:05;;;;;;;;;;;;;;;19.08;43.98;102704.75;5038789;28;19901;-92
2021/11/20 06:15:31;;;;;;;;;;;;;;;18.76;44.72;102698.19;5038846;28;19928;-92
2021/11/20 06:17:56;;;;;;;;;;;;;;;19.53;43.11;102691.28;5038741;28;19925;-91
2021/11/20 06:20:21;;;;;;;;;;;;;;;18.13;46.22;102698.69;5037729;28;19963;-90
2021/11/20 06:22:47;;;;;;;;;;;;;;;18.85;44.71;102696.81;5039055;28;19921;-91
2021/11/20 06:25:12;;;;;;;;;;;;;;;19.33;43.68;102686.06;5039905;28;20024;-91
2021/11/20 06:27:38;;;;;;;;;;;;;;;19.63;43.25;102688.94;5039717;28;20014;-92
2021/11/20 06:30:04;;;;;;;;;;;;;;;18.62;45.09;102698.03;5040216;28;19921;-90
2021/11/20 06:32:30;;;;;;;;;;;;;;;19.17;44.44;102691.47;5038751;28;19917;-89
2021/11/20 06:34:55;;;;;;;;;;;;;;;18.92;44.39;102698.31;5038610;28;19948;-91
2021/11/20 06:37:20;;;;;;;;;;;;;;;19.37;43.63;102694.03;5037550;28;19922;-91
2021/11/20 06:39:46;;;;;;;;;;;;;;;19.55;43.24;102691.22;5037933;28;19917;-91
2021/11/20 06:42:11;;;;;;;;;;;;;;;18.61;44.78;102688.91;5039169;28;19997;-92
2021/11/20 06:44:37;;;;;;;;;;;;;;;19.33;43.61;102691.53;5022749;28;19921;-85
2021/11/20 06:47:02;;;;;;;;;;;;;;;18.46;45.25;102696.06;5035432;28;20013;-83
2021/11/20 06:49:28;;;;;;;;;;;;;;;18.36;45.81;102703.91;5019490;28;19921;-85
2021/11/20 06:51:53;;;;;;;;;;;;;;;18.71;45.11;102706.66;5021455;28;19928;-88
2021/11/20 06:54:18;;;;;;;;;;;;;;;19.01;44.38;102696.91;5021282;28;19924;-84
2021/11/20 06:56:48;;;;;;;;;;;;;;;18.91;44.85;102696.53;5036479;28;19960;-85
2021/11/20 07:01:51;;;;;;;;;;;;;;;18.53;44.75;102694.78;5021896;28;20012;-88
2021/11/20 07:04:18;;;;;;;;;;;;;;;18.40;45.29;102697.28;5021651;28;19971;-89
2021/11/20 07:06:52;;;;;;;;;;;;;;;19.05;44.06;102696.69;5037889;28;20054;-84
2021/11/20 07:09:18;;;;;;;;;;;;;;;19.04;44.06;102700.38;5024061;28;20005;-87
2021/11/20 07:11:43;;;;;;;;;;;;;;;18.91;44.14;102691.03;5040215;28;19968;-87
2021/11/20 07:14:08;;;;;;;;;;;;;;;18.52;45.79;102698.50;5041535;28;19917;-87
2021/11/20 07:16:34;;;;;;;;;;;;;;;18.49;45.68;102695.91;5036690;28;19918;-87
2021/11/20 07:19:00;;;;;;;;;;;;;;;18.92;44.90;102688.22;5036642;28;20429;-86
2021/11/20 07:21:27;;;;;;;;;;;;;;;19.13;44.20;102693.53;5037588;28;19918;-86
2021/11/20 07:23:53;;;;;;;;;;;;;;;18.46;45.87;102696.06;5038997;28;19921;-88
2021/11/20 07:26:18;;;;;;;;;;;;;;;17.73;47.03;102695.16;5037089;28;19918;-87
2021/11/20 07:28:44;;;;;;;;;;;;;;;18.09;47.36;102683.34;5035315;28;20290;-88
2021/11/20 07:31:09;;;;;;;;;;;;;;;17.76;48.18;102681.31;5036165;28;19917;-90
2021/11/20 07:33:34;;;;;;;;;;;;;;;17.59;48.10;102674.78;5035113;28;19918;-89
2021/11/20 07:36:03;;;;;;;;;;;;;;;18.14;47.28;102668.47;5035386;28;19955;-87
2021/11/20 07:38:48;;;;;;;;;;;;;;;18.70;45.88;102661.00;5036271;28;19918;-90
2021/11/20 07:41:14;;;;;;;;;;;;;;;18.22;46.65;102670.81;5036005;28;19905;-91
2021/11/20 07:43:39;;;;;;;;;;;;;;;16.91;50.18;102664.28;5037069;28;19979;-91
2021/11/20 07:46:06;;;;;;;;;;;;;;;17.66;48.48;102667.16;5036739;28;19917;-90
2021/11/20 07:48:34;;;;;;;;;;;;;;;18.00;47.44;102668.28;5036791;28;19924;-90
2021/11/20 07:51:00;;;;;;;;;;;;;;;18.32;46.49;102671.25;5037825;28;20385;-91
2021/11/20 07:53:25;;;;;;;;;;;;;;;18.17;47.42;102678.38;5038184;28;19921;-90
2021/11/20 07:55:52;;;;;;;;;;;;;;;19.03;45.21;102665.69;5035472;28;20378;-90
2021/11/20 07:58:18;;;;;;;;;;;;;;;18.12;47.15;102672.28;5035752;28;19965;-90
2021/11/20 08:00:44;;;;;;;;;;;;;;;18.22;47.29;102668.06;5035088;28;19984;-91
2021/11/20 08:03:13;;;;;;;;;;;;;;;18.29;46.90;102669.53;5038368;28;19957;-91
2021/11/20 08:05:39;;;;;;;;;;;;;;;18.23;47.02;102659.78;5038904;28;19929;-89
2021/11/20 08:08:05;;;;;;;;;;;;;;;17.62;47.93;102658.22;5037639;28;19971;-92
2021/11/20 08:10:32;;;;;;;;;;;;;;;18.11;47.80;102656.78;5037590;28;20330;-91
2021/11/20 08:12:58;;;;;;;;;;;;;;;18.63;46.39;102642.22;5037398;28;19979;-91
2021/11/20 08:15:29;;;;;;;;;;;;;;;17.61;48.96;102645.50;5037294;28;19905;-91
2021/11/20 08:17:55;;;;;;;;;;;;;;;18.90;45.73;102642.63;5036636;28;20375;-91
2021/11/20 08:20:21;;;;;;;;;;;;;;;17.35;49.09;102636.69;5035402;28;19945;-90
2021/11/20 08:22:47;;;;;;;;;;;;;;;18.21;47.68;102641.66;5035367;28;19975;-90
2021/11/20 08:25:21;;;;;;;;;;;;;;;17.90;47.53;102643.19;5020222;28;19917;-90
2021/11/20 08:27:49;;;;;;;;;;;;;;;17.57;49.45;102629.28;5035056;28;19924;-89
2021/11/20 08:30:16;;;;;;;;;;;;;;;18.05;47.22;102634.19;5033412;28;20379;-86
2021/11/20 08:32:42;;;;;;;;;;;;;;;18.59;47.10;102625.06;5033894;28;19957;-87
2021/11/20 08:35:07;;;;;;;;;;;;;;;18.07;48.03;102623.16;5019207;28;19929;-86
2021/11/20 08:37:34;;;;;;;;;;;;;;;17.84;48.50;102621.56;5019604;28;20458;-88
2021/11/20 08:39:59;;;;;;;;;;;;;;;16.82;50.88;102621.81;5020431;28;19918;-87
2021/11/20 08:42:25;;;;;;;;;;;;;;;18.99;46.11;102611.94;5033364;28;20378;-86
2021/11/20 08:44:50;;;;;;;;;;;;;;;18.48;47.02;102620.16;5019131;28;19918;-86
2021/11/20 08:47:16;;;;;;;;;;;;;;;17.33;50.55;102624.94;5035305;28;19917;-84
2021/11/20 08:49:41;;;;;;;;;;;;;;;18.57;47.73;102603.22;5034911;28;20290;-89
2021/11/20 08:52:08;;;;;;;;;;;;;;;17.27;50.72;102607.91;5036619;28;19941;-86
2021/11/20 08:54:34;;;;;;;;;;;;;;;16.80;51.76;102609.16;5041518;28;20576;-85
2021/11/20 08:57:00;;;;;;;;;;;;;;;18.67;47.84;102605.47;5037609;28;19924;-88
2021/11/20 08:59:26;;;;;;;;;;;;;;;18.08;48.94;102604.91;5038710;28;20290;-88
2021/11/20 09:01:57;;;;;;;;;;;;;;;18.25;48.75;102607.63;5040749;28;19989;-85
2021/11/20 09:04:45;;;;;;;;;;;;;;;18.24;48.61;102606.75;5025076;28;20107;-88
2021/11/20 09:07:28;;;;;;;;;;;;;;;17.57;50.09;102599.19;5040166;28;19925;-83
2021/11/20 09:09:59;;;;;;;;;;;;;;;16.64;53.34;102606.25;5022532;28;20060;-85
2021/11/20 09:12:34;;;;;;;;;;;;;;;17.84;49.97;102599.66;5041376;28;19948;-84
2021/11/20 09:15:13;;;;;;;;;;;;;;;18.13;48.69;102590.03;5024718;28;19918;-83
2021/11/20 09:17:38;;;;;;;;;;;;;;;18.54;47.96;102584.19;5041123;28;19918;-83
2021/11/20 09:20:04;;;;;;;;;;;;;;;18.33;48.35;102585.34;5042117;28;19981;-84
2021/11/20 09:22:30;;;;;;;;;;;;;;;18.24;48.48;102590.34;5040544;28;19925;-84
2021/11/20 09:24:55;;;;;;;;;;;;;;;17.98;49.76;102590.78;5041698;28;19921;-84
2021/11/20 09:27:24;;;;;;;;;;;;;;;18.02;49.42;102579.59;5026856;28;19924;-83
2021/11/20 09:29:49;;;;;;;;;;;;;;;19.25;46.16;102569.34;5041875;28;19917;-84
2021/11/20 09:32:16;;;;;;;;;;;;;;;18.75;47.25;102571.19;5040488;28;19924;-88
2021/11/20 09:34:41;;;;;;;;;;;;;;;18.45;48.07;102581.97;5039169;28;19917;-84
2021/11/20 09:37:07;;;;;;;;;;;;;;;18.73;47.58;102583.19;5034523;28;20117;-87
2021/11/20 09:39:35;;;;;;;;;;;;;;;17.40;51.20;102580.88;5031584;28;19922;-89
2021/11/20 09:42:30;;;;;;;;;;;;;;;19.34;46.49;102572.53;5017240;28;19918;-86
2021/11/20 09:45:00;;;;;;;;;;;;;;;18.73;47.77;102586.81;5023787;28;20374;-86
2021/11/20 09:47:29;;;;;;;;;;;;;;;18.20;49.31;102583.22;5006858;28;19957;-86
2021/11/20 09:49:56;;;;;;;;;;;;;;;18.49;48.06;102582.66;5028642;28;20016;-84
2021/11/20 09:52:21;;;;;;;;;;;;;;;18.80;47.60;102578.28;5016675;28;20327;-87
2021/11/20 09:54:47;;;;;;;;;;;;;;;18.37;48.13;102593.31;5030889;28;19932;-83
2021/11/20 09:57:20;;;;;;;;;;;;;;;18.19;48.94;102583.31;5040650;28;19925;-87
2021/11/20 09:59:52;;;;;;;;;;;;;;;18.64;47.97;102579.09;5018428;28;20248;-87
2021/11/20 10:02:25;;;;;;;;;;;;;;;18.49;48.74;102574.44;5016650;28;19922;-86
2021/11/20 10:04:54;;;;;;;;;;;;;;;18.26;49.26;102568.34;5029901;28;19918;-81
2021/11/20 10:07:28;;;;;;;;;;;;;;;17.78;50.12;102572.59;5013012;28;19924;-85
2021/11/20 10:10:01;;;;;;;;;;;;;;;17.60;51.80;102569.81;5009906;28;19929;-82
2021/11/20 10:12:34;;;;;;;;;;;;;;;17.95;49.28;102559.00;5021254;28;19917;-86
2021/11/20 10:15:03;;;;;;;;;;;;;;;18.09;49.86;102551.88;5022202;28;19929;-86
2021/11/20 10:17:40;;;;;;;;;;;;;;;18.13;49.70;102551.66;5031701;28;19918;-85
2021/11/20 10:20:25;;;;;;;;;;;;;;;18.62;48.33;102548.16;5031865;28;19961;-80
2021/11/20 10:23:00;;;;;;;;;;;;;;;18.64;48.17;102554.41;5012883;28;19928;-85
2021/11/20 10:25:25;;;;;;;;;;;;;;;17.89;49.93;102551.09;5004696;28;20026;-85
2021/11/20 10:28:04;;;;;;;;;;;;;;;18.11;49.36;102547.22;5008644;28;19921;-87
2021/11/20 10:30:32;;;;;;;;;;;;;;;18.65;48.65;102552.59;5030939;28;19929;-82
2021/11/20 10:33:00;;;;;;;;;;;;;;;18.35;49.28;102553.25;5036594;28;19934;-83
2021/11/20 10:35:35;;;;;;;;;;;;;;;18.56;47.96;102554.84;5017085;28;19929;-85
2021/11/20 10:38:06;;;;;;;;;;;;;;;18.50;49.17;102560.66;5018932;28;19917;-85
2021/11/20 10:40:31;;;;;;;;;;;;;;;18.33;50.20;102556.09;5031926;28;19918;-87
2021/11/20 10:43:02;;;;;;;;;;;;;;;18.24;49.80;102549.25;5031956;28;20341;-88
2021/11/20 10:45:30;;;;;;;;;;;;;;;18.19;50.67;102551.34;5016213;28;19921;-87
2021/11/20 10:47:55;;;;;;;;;;;;;;;18.15;50.31;102540.63;5015941;28;19924;-82
2021/11/20 10:50:29;;;;;;;;;;;;;;;18.05;50.48;102540.22;4998872;28;19934;-83
2021/11/20 10:53:13;;;;;;;;;;;;;;;18.36;49.76;102542.22;5013599;28;19972;-86
2021/11/20 10:55:38;;;;;;;;;;;;;;;18.41;49.73;102537.38;5009052;28;19929;-82
2021/11/20 10:58:23;;;;;;;;;;;;;;;18.88;48.57;102521.19;5031191;28;19964;-86
2021/11/20 11:01:07;;;;;;;;;;;;;;;18.48;49.01;102521.50;5023556;28;19925;-85
2021/11/20 11:03:43;;;;;;;;;;;;;;;18.47;50.05;102521.59;5014947;28;19921;-83
2021/11/20 11:06:27;;;;;;;;;;;;;;;18.77;48.91;102505.28;5026820;28;19929;-83
2021/11/20 11:08:57;;;;;;;;;;;;;;;19.50;47.12;102499.31;5012669;28;19922;-82
2021/11/20 11:11:33;;;;;;;;;;;;;;;17.83;51.57;102500.22;5026805;28;19929;-80
2021/11/20 11:14:02;;;;;;;;;;;;;;;17.67;51.45;102508.34;5035414;28;19913;-84
2021/11/20 11:16:43;;;;;;;;;;;;;;;17.83;52.23;102499.31;5021295;28;19948;-87
2021/11/20 11:19:24;;;;;;;;;;;;;;;18.06;51.52;102492.69;5024775;28;19960;-85
2021/11/20 11:22:01;;;;;;;;;;;;;;;18.41;50.57;102489.91;5013432;28;19917;-82
2021/11/20 11:24:32;;;;;;;;;;;;;;;18.30;50.65;102479.53;5017744;28;19953;-84
2021/11/20 11:27:18;;;;;;;;;;;;;;;18.32;51.03;102474.84;5031319;28;20001;-84
2021/11/20 11:29:59;;;;;;;;;;;;;;;18.51;49.84;102468.34;5025028;28;19926;-87
2021/11/20 11:32:25;;;;;;;;;;;;;;;18.08;51.25;102463.38;5011825;28;19922;-83
2021/11/20 11:34:53;;;;;;;;;;;;;;;18.45;50.53;102450.41;5018073;28;20325;-87
2021/11/20 11:37:40;;;;;;;;;;;;;;;17.13;53.74;102460.91;5043097;28;19918;-83
2021/11/20 11:40:24;;;;;;;;;;;;;;;18.03;52.36;102441.69;5036566;28;19924;-80
2021/11/20 11:42:55;;;;;;;;;;;;;;;17.21;54.04;102452.31;5029669;28;19940;-81
2021/11/20 11:45:39;;;;;;;;;;;;;;;18.37;50.48;102437.13;5029849;28;19917;-82
2021/11/20 11:48:40;;;;;;;;;;;;;;;18.83;49.48;102421.81;5019614;28;20366;-87
2021/11/20 11:51:05;;;;;;;;;;;;;;;17.60;51.78;102427.50;5049410;28;19922;-85
2021/11/20 11:53:34;;;;;;;;;;;;;;;18.21;51.03;102414.28;5034748;28;19941;-86
2021/11/20 11:56:01;;;;;;;;;;;;;;;18.65;49.43;102421.88;5021394;28;19940;-88
2021/11/20 11:58:33;;;;;;;;;;;;;;;17.65;52.95;102425.44;5040617;28;19917;-87
2021/11/20 12:01:04;;;;;;;;;;;;;;;18.42;49.83;102418.56;5038399;28;19921;-86
2021/11/20 12:03:32;;;;;;;;;;;;;;;19.09;48.87;102412.97;5037884;28;19918;-83
2021/11/20 12:06:00;;;;;;;;;;;;;;;17.93;50.97;102404.81;5038307;28;19965;-83
2021/11/20 12:08:28;;;;;;;;;;;;;;;18.19;50.96;102397.03;5037534;28;19924;-86
2021/11/20 12:11:04;;;;;;;;;;;;;;;17.76;51.43;102391.13;5035056;28;19972;-90
2021/11/20 12:13:32;;;;;;;;;;;;;;;17.60;53.34;102389.19;5015829;28;19964;-85
2021/11/20 12:16:03;;;;;;;;;;;;;;;18.47;51.59;102379.94;5024159;28;19922;-83
2021/11/20 12:18:37;;;;;;;;;;;;;;;18.65;49.98;102367.06;5019533;28;19983;-88
2021/11/20 12:21:15;;;;;;;;;;;;;;;18.78;49.19;102367.22;5033529;28;20010;-89
2021/11/20 12:23:52;;;;;;;;;;;;;;;19.17;48.47;102362.25;5034495;28;19933;-86
2021/11/20 12:26:32;;;;;;;;;;;;;;;18.84;49.48;102360.50;5033936;28;19929;-90
2021/11/20 12:28:59;;;;;;;;;;;;;;;18.32;50.19;102358.91;5027272;28;19922;-88
2021/11/20 12:31:43;;;;;;;;;;;;;;;17.49;52.88;102354.19;5020839;28;19928;-87
2021/11/20 12:34:27;;;;;;;;;;;;;;;17.79;53.11;102347.16;5014883;28;19922;-86
2021/11/20 12:36:56;;;;;;;;;;;;;;;18.17;51.64;102344.19;5033317;28;19960;-84
2021/11/20 12:39:24;;;;;;;;;;;;;;;17.56;53.84;102349.28;5016902;28;20038;-85
2021/11/20 12:42:08;;;;;;;;;;;;;;;17.78;53.24;102339.91;5008175;28;19929;-84
2021/11/20 12:44:53;;;;;;;;;;;;;;;17.60;53.95;102342.66;5031455;28;19984;-87
2021/11/20 12:47:33;;;;;;;;;;;;;;;18.58;51.74;102338.22;5030870;28;19922;-85